Time;durP1;ratioP1;P1;durP2;ratioP2;P2;SDS_P1;SDS_P2;PMS_P1;PMS_P2;Temp;Humidity;BMP_temperature;BMP_pressure;BME280_temperature;BME280_humidity;BME280_pressure;Samples;Min_cycle;Max_cycle;Signal;HPM_P1;HPM_P2
2022/12/09 00:01:47;;;;;;;28.65;12.77;;;-3.30;99.90;;;-5.41;100.00;99861.53;5026849;28;20048;-77
2022/12/09 00:04:14;;;;;;;24.83;11.48;;;-3.40;99.90;;;-5.49;100.00;99864.84;5027781;28;20076;-77
2022/12/09 00:06:39;;;;;;;24.25;11.18;;;-3.60;99.90;;;-5.57;100.00;99863.81;5026199;28;20033;-77
2022/12/09 00:09:05;;;;;;;22.83;10.90;;;-3.70;99.90;;;-5.64;100.00;99871.50;5027873;28;20169;-77
2022/12/09 00:11:31;;;;;;;23.27;10.27;;;-3.70;99.90;;;-5.68;100.00;99868.22;5027439;28;20060;-77
2022/12/09 00:13:59;;;;;;;26.38;11.80;;;-3.70;99.90;;;-5.67;100.00;99869.09;5026149;28;20033;-76
2022/12/09 00:16:25;;;;;;;28.40;13.70;;;-3.70;99.90;;;-5.49;100.00;99872.00;5024400;28;20116;-77
2022/12/09 00:18:52;;;;;;;24.55;11.48;;;-3.60;99.90;;;-5.07;100.00;99879.84;5026125;28;20108;-77
2022/12/09 00:21:31;;;;;;;27.00;12.43;;;-3.30;99.90;;;-5.11;100.00;99866.97;5023453;28;20037;-77
2022/12/09 00:24:00;;;;;;;25.35;11.82;;;-3.20;99.90;;;-5.17;100.00;99879.00;5026636;28;20033;-78
2022/12/09 00:26:27;;;;;;;24.02;11.75;;;-3.30;99.90;;;-5.29;100.00;99877.41;5026989;28;20079;-78
2022/12/09 00:28:55;;;;;;;28.00;12.38;;;-3.40;99.90;;;-5.36;100.00;99880.56;5026912;28;20025;-78
2022/12/09 00:31:26;;;;;;;;;;;-3.40;99.90;;;-5.38;100.00;99882.53;5027878;28;20063;-78
2022/12/09 00:33:55;;;;;;;32.28;11.90;;;-3.40;99.90;;;-5.41;100.00;99882.78;5024583;28;19993;-78
2022/12/09 00:36:23;;;;;;;27.67;12.43;;;-3.50;99.90;;;-5.42;100.00;99888.25;5026225;28;20030;-78
2022/12/09 00:38:49;;;;;;;26.67;12.95;;;-3.50;99.90;;;-5.43;100.00;99890.06;5026409;28;20503;-79
2022/12/09 00:41:16;;;;;;;24.80;11.75;;;-3.50;99.90;;;-5.44;100.00;99890.19;5026146;28;20037;-78
2022/12/09 00:43:43;;;;;;;28.08;12.68;;;-3.50;99.90;;;-5.47;100.00;99893.97;5027203;28;20049;-78
2022/12/09 00:46:10;;;;;;;27.02;12.85;;;-3.50;99.90;;;-5.43;100.00;99891.91;5026750;28;20029;-78
2022/12/09 00:48:37;;;;;;;30.13;13.97;;;-3.50;99.90;;;-5.36;100.00;99888.56;5021762;28;20114;-78
2022/12/09 00:51:05;;;;;;;31.50;13.80;;;-3.40;99.90;;;-5.22;100.00;99886.53;5027440;28;20650;-78
2022/12/09 00:53:31;;;;;;;30.77;13.68;;;-3.30;99.90;;;-5.13;100.00;99891.03;5025718;28;20314;-78
2022/12/09 00:55:57;;;;;;;29.95;14.20;;;-3.20;99.90;;;-5.18;100.00;99890.59;5026271;28;20064;-78
2022/12/09 00:58:23;;;;;;;28.52;13.20;;;-3.20;99.90;;;-5.24;100.00;99889.31;5026291;28;20567;-78
2022/12/09 01:00:52;;;;;;;31.55;13.43;;;-3.30;99.90;;;-5.28;100.00;99887.06;5026568;28;20029;-78
2022/12/09 01:03:19;;;;;;;31.67;14.13;;;-3.30;99.90;;;-5.19;100.00;99891.59;5024202;28;20511;-78
2022/12/09 01:05:46;;;;;;;33.30;14.87;;;-3.30;99.90;;;-5.21;100.00;99889.03;5026881;28;20025;-78
2022/12/09 01:08:13;;;;;;;36.47;14.35;;;-3.20;99.90;;;-5.22;100.00;99894.50;5025615;28;20132;-78
2022/12/09 01:10:43;;;;;;;35.95;15.43;;;-3.20;99.90;;;-5.25;100.00;99892.94;5026317;28;20053;-78
2022/12/09 01:13:11;;;;;;;33.78;14.55;;;-3.20;99.90;;;-5.28;100.00;99897.72;5027213;28;20026;-79
2022/12/09 01:15:37;;;;;;;32.80;13.48;;;-3.30;99.90;;;-5.29;100.00;99901.34;5027858;28;20395;-78
2022/12/09 01:18:04;;;;;;;32.05;13.57;;;-3.30;99.90;;;-5.23;100.00;99903.47;5027666;28;20048;-79
2022/12/09 01:20:29;;;;;;;33.63;14.88;;;-3.30;99.90;;;-5.22;100.00;99902.50;5024649;28;20053;-78
2022/12/09 01:22:58;;;;;;;32.35;14.25;;;-3.20;99.90;;;-5.16;100.00;99904.63;5021606;28;20040;-79
2022/12/09 01:25:24;;;;;;;33.63;14.93;;;-3.20;99.90;;;-5.12;100.00;99892.72;5026324;28;20055;-78
2022/12/09 01:27:50;;;;;;;33.45;14.98;;;-3.10;99.90;;;-4.93;100.00;99901.78;5026706;28;20036;-78
2022/12/09 01:30:16;;;;;;;33.78;14.65;;;-3.00;99.90;;;-4.88;100.00;99893.41;5025337;28;20041;-78
2022/12/09 01:32:42;;;;;;;38.95;15.23;;;-2.90;99.90;;;-4.82;100.00;99893.66;5026332;28;20037;-79
2022/12/09 01:35:08;;;;;;;36.90;15.45;;;-2.80;99.90;;;-4.82;100.00;99899.00;5026360;28;20040;-79
2022/12/09 01:37:36;;;;;;;34.90;14.70;;;-2.80;99.90;;;-4.95;100.00;99906.38;5027356;28;20093;-78
2022/12/09 01:40:08;;;;;;;36.88;14.45;;;-2.90;99.90;;;-5.17;100.00;99904.72;5027878;28;20030;-78
2022/12/09 01:42:34;;;;;;;31.60;13.70;;;-3.20;99.90;;;-5.26;100.00;99907.22;5026668;28;20053;-80
2022/12/09 01:45:18;;;;;;;31.58;14.30;;;-3.30;99.90;;;-5.35;100.00;99898.22;5025520;28;20044;-80
2022/12/09 01:47:55;;;;;;;32.92;14.07;;;-3.30;99.90;;;-5.41;100.00;99897.94;5025835;28;20116;-78
2022/12/09 01:50:22;;;;;;;29.00;12.85;;;-3.40;99.90;;;-5.51;100.00;99904.00;5022218;28;20429;-79
2022/12/09 01:52:49;;;;;;;29.53;13.63;;;-3.50;99.90;;;-5.54;100.00;99898.13;5026186;28;20112;-79
2022/12/09 01:55:15;;;;;;;31.88;13.63;;;-3.50;99.90;;;-5.31;100.00;99892.63;5022752;28;20109;-79
2022/12/09 01:57:43;;;;;;;33.33;14.52;;;-3.40;99.90;;;-4.95;100.00;99899.22;5025265;28;20086;-78
2022/12/09 02:00:11;;;;;;;35.85;15.40;;;-3.20;99.90;;;-4.80;100.00;99897.03;5032093;28;20026;-79
2022/12/09 02:02:46;;;;;;;43.17;17.02;;;-2.90;99.90;;;-4.68;100.00;99891.63;5024600;28;20038;-77
2022/12/09 02:05:14;;;;;;;37.55;15.60;;;-2.70;99.90;;;-4.69;100.00;99893.44;5024330;28;20112;-78
2022/12/09 02:07:44;;;;;;;34.60;15.32;;;-2.70;99.90;;;-4.71;100.00;99894.56;5032011;28;20176;-77
2022/12/09 02:10:16;;;;;;;34.60;14.25;;;-2.70;99.90;;;-4.85;100.00;99885.13;5025754;28;20045;-78
2022/12/09 02:13:21;;;;;;;36.03;15.63;;;-2.80;99.90;;;-4.93;100.00;99883.16;5008741;28;20030;-77
2022/12/09 02:15:56;;;;;;;39.30;16.27;;;-3.00;99.90;;;-4.98;100.00;99880.06;5022245;28;20041;-77
2022/12/09 02:18:44;;;;;;;39.40;15.43;;;-3.00;99.90;;;-5.08;100.00;99872.84;5019693;28;20021;-76
2022/12/09 02:21:27;;;;;;;37.13;14.98;;;-3.10;99.90;;;-5.22;100.00;99874.06;5024213;28;20067;-77
2022/12/09 02:24:26;;;;;;;42.90;16.35;;;-3.20;99.90;;;-5.29;100.00;99872.91;5024994;28;20033;-77
2022/12/09 02:27:02;;;;;;;39.13;14.63;;;-3.40;99.90;;;-5.27;100.00;99864.81;5011631;28;20496;-77
2022/12/09 02:29:46;;;;;;;38.08;16.08;;;-3.30;99.90;;;-5.35;100.00;99853.00;5025598;28;20037;-79
2022/12/09 02:32:37;;;;;;;39.40;16.70;;;-3.30;99.90;;;-5.19;100.00;99875.63;5021417;28;20443;-78
2022/12/09 02:35:20;;;;;;;35.08;14.50;;;-3.30;99.90;;;-5.00;100.00;99871.38;5029012;28;20037;-78
2022/12/09 02:38:05;;;;;;;;;;;-3.10;99.90;;;-4.98;100.00;99872.06;5024721;28;20173;-79
2022/12/09 02:41:10;;;;;;;30.67;14.27;;;-3.00;99.90;;;-5.03;100.00;99871.63;5024182;28;19937;-78
2022/12/09 02:43:48;;;;;;;37.50;15.75;;;-3.00;99.90;;;-5.17;100.00;99873.66;5040912;28;20041;-79
2022/12/09 02:46:19;;;;;;;36.80;15.35;;;-3.10;99.90;;;-5.24;100.00;99872.53;5028278;28;20025;-78
2022/12/09 02:48:53;;;;;;;38.67;15.88;;;-3.20;99.90;;;-5.29;100.00;99874.75;5026484;28;20120;-79
2022/12/09 02:51:22;;;;;;;42.80;16.52;;;-3.30;99.90;;;-5.39;100.00;99875.53;5022135;28;20037;-79
2022/12/09 02:53:55;;;;;;;40.35;16.70;;;-3.40;99.90;;;-5.26;100.00;99874.47;5037511;28;20355;-79
2022/12/09 02:56:23;;;;;;;43.00;16.52;;;-3.30;99.90;;;-5.23;100.00;99868.91;5019293;28;20038;-78
2022/12/09 02:58:49;;;;;;;44.58;17.25;;;-3.30;99.90;;;-5.24;100.00;99870.69;5023078;28;20053;-79
2022/12/09 03:01:59;;;;;;;42.72;16.25;;;-3.20;99.90;;;-5.27;100.00;99867.47;5011693;28;20061;-79
2022/12/09 03:04:27;;;;;;;38.95;14.98;;;-3.30;99.90;;;-5.34;100.00;99859.19;5026888;28;20057;-78
2022/12/09 03:07:06;;;;;;;41.75;15.65;;;-3.30;99.90;;;-5.38;100.00;99863.91;5028048;28;20034;-78
2022/12/09 03:09:39;;;;;;;44.13;16.63;;;-3.40;99.90;;;-5.46;100.00;99852.25;5025789;28;20029;-79
2022/12/09 03:12:10;;;;;;;43.20;15.63;;;-3.50;99.90;;;-5.49;100.00;99853.38;5027278;28;20399;-78
2022/12/09 03:14:48;;;;;;;39.22;15.38;;;-3.60;99.90;;;-5.58;100.00;99854.16;5028821;28;20067;-77
2022/12/09 03:17:27;;;;;;;35.50;14.43;;;-3.70;99.90;;;-5.65;100.00;99856.50;5027351;28;20491;-78
2022/12/09 03:19:59;;;;;;;32.90;13.65;;;-3.80;99.90;;;-5.80;100.00;99851.53;5027958;28;20037;-77
2022/12/09 03:22:31;;;;;;;42.13;14.75;;;-3.90;99.90;;;-5.88;100.00;99850.47;5028925;28;20112;-77
2022/12/09 03:25:16;;;;;;;30.08;12.20;;;-4.00;99.90;;;-6.02;100.00;99855.19;5027844;28;20037;-78
2022/12/09 03:28:05;;;;;;;32.63;13.55;;;-4.10;99.90;;;-6.13;100.00;99856.09;5028031;28;20183;-78
2022/12/09 03:30:33;;;;;;;;;;;-4.20;99.90;;;-6.27;100.00;99853.72;5023502;28;20038;-77
2022/12/09 03:33:01;;;;;;;30.23;13.02;;;-4.30;99.90;;;-6.30;100.00;99849.53;5029330;28;20385;-77
2022/12/09 03:35:44;;;;;;;38.42;12.70;;;-4.40;99.90;;;-6.36;100.00;99839.41;5020815;28;20059;-78
2022/12/09 03:38:15;;;;;;;31.00;11.40;;;-4.30;99.90;;;-6.28;100.00;99854.69;5028002;28;20037;-78
2022/12/09 03:40:42;;;;;;;20.75;9.88;;;-4.30;99.90;;;-6.27;100.00;99845.75;5026110;28;20025;-78
2022/12/09 03:43:23;;;;;;;17.75;7.75;;;-4.30;99.90;;;-6.28;100.00;99850.25;5027771;28;20496;-78
2022/12/09 03:45:53;;;;;;;23.02;11.30;;;-4.30;99.90;;;-6.25;100.00;99849.13;5023587;28;20033;-79
2022/12/09 03:48:20;;;;;;;33.13;12.63;;;-4.20;99.90;;;-6.29;100.00;99856.53;5024597;28;20045;-78
2022/12/09 03:50:58;;;;;;;29.45;10.70;;;-4.30;99.90;;;-6.37;100.00;99856.28;5028746;28;20072;-78
2022/12/09 03:53:48;;;;;;;27.90;11.55;;;-4.40;99.90;;;-6.43;100.00;99852.34;5029008;28;20040;-77
2022/12/09 03:56:25;;;;;;;27.35;11.18;;;-4.40;99.90;;;-6.45;100.00;99843.69;5028279;28;20127;-77
2022/12/09 03:58:56;;;;;;;30.70;12.02;;;-4.40;99.90;;;-6.44;100.00;99832.09;5027894;28;20029;-77
2022/12/09 04:01:25;;;;;;;28.77;12.73;;;-4.40;99.90;;;-6.43;100.00;99854.16;5025910;28;20103;-77
2022/12/09 04:03:54;;;;;;;32.80;13.55;;;-4.40;99.90;;;-6.46;100.00;99857.06;5024462;28;20123;-78
2022/12/09 04:06:21;;;;;;;28.13;11.95;;;-4.40;99.90;;;-6.46;100.00;99844.66;5027194;28;20109;-77
2022/12/09 04:08:46;;;;;;;29.45;11.63;;;-4.40;99.90;;;-6.52;100.00;99845.97;5026155;28;20022;-78
2022/12/09 04:11:12;;;;;;;34.95;14.20;;;-4.50;99.90;;;-6.51;100.00;99845.00;5022698;28;20868;-77
2022/12/09 04:13:38;;;;;;;33.53;13.82;;;-4.50;99.90;;;-6.52;100.00;99847.78;5026296;28;20128;-77
2022/12/09 04:16:04;;;;;;;39.55;15.43;;;-4.50;99.90;;;-6.48;100.00;99848.38;5025869;28;20029;-77
2022/12/09 04:18:31;;;;;;;32.63;13.50;;;-4.50;99.90;;;-6.56;100.00;99847.22;5028584;28;20029;-77
2022/12/09 04:20:57;;;;;;;30.05;13.73;;;-4.60;99.90;;;-6.62;100.00;99847.72;5028320;28;20037;-78
2022/12/09 04:23:22;;;;;;;31.73;14.35;;;-4.60;99.90;;;-6.52;100.00;99853.94;5026336;28;20039;-79
2022/12/09 04:25:48;;;;;;;32.00;13.52;;;-4.50;99.90;;;-6.43;100.00;99849.69;5027638;28;20029;-77
2022/12/09 04:28:14;;;;;;;40.13;14.25;;;-4.40;99.90;;;-6.23;100.00;99848.03;5027489;28;20082;-78
2022/12/09 04:30:45;;;;;;;33.53;14.68;;;-4.20;99.90;;;-6.08;100.00;99851.22;5027259;28;20036;-78
2022/12/09 04:33:11;;;;;;;26.67;13.05;;;-4.10;99.90;;;-6.04;100.00;99843.84;5028027;28;20021;-77
2022/12/09 04:35:37;;;;;;;28.90;12.77;;;-4.00;99.90;;;-6.03;100.00;99836.72;5026777;28;20361;-78
2022/12/09 04:38:03;;;;;;;26.75;12.85;;;-4.00;99.90;;;-6.01;100.00;99848.91;5026508;28;20029;-78
2022/12/09 04:40:28;;;;;;;60.75;15.18;;;-3.90;99.90;;;-5.99;100.00;99840.75;5026102;28;20034;-78
2022/12/09 04:42:54;;;;;;;33.00;14.30;;;-3.90;99.90;;;-6.02;100.00;99841.91;5024902;28;20037;-78
2022/12/09 04:45:20;;;;;;;36.85;15.68;;;-4.00;99.90;;;-6.07;100.00;99844.13;5024921;28;20168;-78
2022/12/09 04:47:46;;;;;;;50.75;15.57;;;-4.00;99.90;;;-6.04;100.00;99843.84;5021862;28;20065;-78
2022/12/09 04:50:12;;;;;;;54.13;15.88;;;-4.00;99.90;;;-5.96;100.00;99849.31;5027837;28;20195;-78
2022/12/09 04:52:38;;;;;;;43.80;14.65;;;-3.90;99.90;;;-5.95;100.00;99848.34;5022737;28;20037;-78
2022/12/09 04:55:04;;;;;;;46.78;15.15;;;-3.90;99.90;;;-5.89;100.00;99839.03;5027173;28;20432;-78
2022/12/09 04:57:30;;;;;;;38.08;15.30;;;-3.80;99.90;;;-5.81;100.00;99843.69;5027442;28;20108;-78
2022/12/09 05:00:02;;;;;;;40.63;15.85;;;-3.80;99.90;;;-5.79;100.00;99849.72;5027446;28;20025;-76
2022/12/09 05:02:28;;;;;;;42.55;16.77;;;-3.80;99.90;;;-5.81;100.00;99841.03;5023481;28;20132;-78
2022/12/09 05:04:54;;;;;;;39.83;17.20;;;-3.70;99.90;;;-5.80;100.00;99845.38;5022364;28;20049;-78
2022/12/09 05:07:22;;;;;;;38.78;16.92;;;-3.80;99.90;;;-5.78;100.00;99844.25;5027705;28;20522;-78
2022/12/09 05:09:48;;;;;;;40.45;16.55;;;-3.70;99.90;;;-5.79;100.00;99847.06;5026520;28;20030;-78
2022/12/09 05:12:13;;;;;;;40.35;16.50;;;-3.70;99.90;;;-5.83;100.00;99840.31;5026204;28;20589;-77
2022/12/09 05:14:40;;;;;;;46.38;16.85;;;-3.80;99.90;;;-5.85;100.00;99842.25;5019330;28;20026;-78
2022/12/09 05:17:06;;;;;;;42.55;17.40;;;-3.80;99.90;;;-5.88;100.00;99839.84;5027675;28;20040;-78
2022/12/09 05:19:31;;;;;;;36.33;15.52;;;-3.80;99.90;;;-5.98;100.00;99840.63;5027119;28;20079;-79
2022/12/09 05:21:57;;;;;;;36.30;16.25;;;-3.90;99.90;;;-6.10;100.00;99841.69;5027076;28;20025;-79
2022/12/09 05:24:23;;;;;;;34.88;15.35;;;-4.00;99.90;;;-6.17;100.00;99845.84;5026816;28;20033;-78
2022/12/09 05:26:50;;;;;;;36.92;15.73;;;-4.20;99.90;;;-6.14;100.00;99842.91;5026638;28;20063;-79
2022/12/09 05:29:17;;;;;;;38.80;14.85;;;-4.20;99.90;;;-6.05;100.00;99847.47;5025641;28;20033;-78
2022/12/09 05:31:42;;;;;;;36.08;15.70;;;-4.20;99.90;;;-6.10;100.00;99845.19;5023989;28;20041;-77
2022/12/09 05:34:08;;;;;;;36.28;14.07;;;-4.20;99.90;;;-6.29;100.00;99840.59;5023032;28;20512;-78
2022/12/09 05:36:35;;;;;;;37.72;15.18;;;-4.20;99.90;;;-6.29;100.00;99856.53;5024031;28;20025;-77
2022/12/09 05:39:01;;;;;;;39.78;16.13;;;-4.30;99.90;;;-6.37;100.00;99850.97;5020425;28;20097;-78
2022/12/09 05:41:27;;;;;;;34.75;15.38;;;-4.30;99.90;;;-6.47;100.00;99856.22;5024609;28;20473;-77
2022/12/09 05:43:53;;;;;;;40.25;14.57;;;-4.50;99.90;;;-6.58;100.00;99851.81;5022202;28;20360;-79
2022/12/09 05:46:20;;;;;;;37.22;15.75;;;-4.50;99.90;;;-6.68;100.00;99857.00;5021755;28;20037;-78
2022/12/09 05:48:46;;;;;;;49.30;18.35;;;-4.70;99.90;;;-6.84;100.00;99843.28;5033004;28;20117;-78
2022/12/09 05:51:17;;;;;;;35.17;15.10;;;-4.80;99.90;;;-6.85;100.00;99847.78;5021867;28;20152;-79
2022/12/09 05:53:43;;;;;;;54.20;20.23;;;-4.80;99.90;;;-6.80;100.00;99850.03;5027341;28;20060;-78
2022/12/09 05:56:09;;;;;;;53.92;20.55;;;-4.70;99.90;;;-6.79;100.00;99852.56;5025533;28;20037;-76
2022/12/09 05:58:34;;;;;;;57.25;19.70;;;-4.80;99.90;;;-6.75;100.00;99844.34;5029318;28;20060;-77
2022/12/09 06:01:05;;;;;;;27.42;13.63;;;-4.80;99.90;;;-6.74;100.00;99843.41;5029867;28;20042;-77
2022/12/09 06:03:32;;;;;;;63.85;19.67;;;-4.80;99.90;;;-6.70;100.00;99840.38;5029411;28;20037;-77
2022/12/09 06:05:58;;;;;;;68.45;20.60;;;-4.70;99.90;;;-6.66;100.00;99841.81;5030039;28;20056;-76
2022/12/09 06:08:24;;;;;;;53.10;19.20;;;-4.70;99.90;;;-6.80;100.00;99844.72;5030989;28;20053;-77
2022/12/09 06:10:50;;;;;;;44.50;17.10;;;-4.80;99.90;;;-6.92;100.00;99838.59;5030189;28;20604;-76
2022/12/09 06:13:15;;;;;;;48.53;18.48;;;-4.90;99.90;;;-7.02;100.00;99840.31;5030121;28;20049;-77
2022/12/09 06:15:41;;;;;;;49.13;17.90;;;-5.00;99.90;;;-7.15;100.00;99851.91;5029795;28;20223;-76
2022/12/09 06:18:07;;;;;;;45.30;17.88;;;-5.10;99.90;;;-7.27;100.00;99852.88;5027268;28;20087;-76
2022/12/09 06:20:32;;;;;;;44.03;16.83;;;-5.20;99.90;;;-7.39;100.00;99852.88;5027527;28;20033;-76
2022/12/09 06:22:58;;;;;;;44.08;16.17;;;-5.30;99.90;;;-7.43;100.00;99856.72;5024930;28;20100;-77
2022/12/09 06:25:24;;;;;;;29.67;12.98;;;-5.40;99.90;;;-7.48;100.00;99845.63;5030422;28;20113;-77
2022/12/09 06:27:52;;;;;;;25.50;12.20;;;-5.40;99.90;;;-7.51;100.00;99851.19;5030697;28;20438;-77
2022/12/09 06:30:18;;;;;;;35.05;11.50;;;-5.50;99.90;;;-7.48;100.00;99850.94;5029429;28;20057;-76
2022/12/09 06:32:44;;;;;;;26.73;12.63;;;-5.40;99.90;;;-7.40;100.00;99855.63;5030151;28;20526;-77
2022/12/09 06:35:10;;;;;;;28.92;12.15;;;-5.40;99.90;;;-7.34;100.00;99857.81;5029921;28;20057;-76
2022/12/09 06:37:35;;;;;;;24.10;11.10;;;-5.30;99.90;;;-7.28;100.00;99849.41;5027544;28;20108;-76
2022/12/09 06:40:02;;;;;;;23.98;10.98;;;-5.20;99.90;;;-7.08;100.00;99862.84;5030090;28;20029;-77
2022/12/09 06:42:28;;;;;;;32.17;13.38;;;-5.10;99.90;;;-6.90;100.00;99857.88;5027520;28;20182;-76
2022/12/09 06:44:53;;;;;;;33.40;13.85;;;-4.90;99.90;;;-6.63;100.00;99853.13;5038995;28;20033;-76
2022/12/09 06:47:19;;;;;;;35.83;15.60;;;-4.70;99.90;;;-6.46;100.00;99849.09;5028397;28;20100;-76
2022/12/09 06:49:45;;;;;;;35.85;15.23;;;-4.50;99.90;;;-6.38;100.00;99847.50;5028891;28;20037;-76
2022/12/09 06:52:10;;;;;;;32.33;14.52;;;-4.40;99.90;;;-6.25;100.00;99843.81;5028849;28;20041;-78
2022/12/09 06:54:36;;;;;;;31.45;13.27;;;-4.20;99.90;;;-6.15;100.00;99838.59;5029757;28;20029;-76
2022/12/09 06:57:02;;;;;;;37.78;15.75;;;-4.10;99.90;;;-6.00;100.00;99834.63;5029303;28;20105;-77
2022/12/09 06:59:27;;;;;;;37.72;15.55;;;-3.90;99.90;;;-5.84;100.00;99838.63;5028415;28;20040;-77
2022/12/09 07:01:53;;;;;;;40.92;16.35;;;-3.80;99.90;;;-5.70;100.00;99840.94;5029005;28;20400;-78
2022/12/09 07:04:19;;;;;;;42.97;15.70;;;-3.60;99.90;;;-5.58;100.00;99836.41;5029348;28;20029;-79
2022/12/09 07:06:45;;;;;;;40.53;17.25;;;-3.50;99.90;;;-5.48;100.00;99849.75;5025844;28;20036;-81
2022/12/09 07:09:17;;;;;;;39.22;16.48;;;-3.40;99.90;;;-5.38;100.00;99852.44;5025533;28;20034;-77
2022/12/09 07:11:45;;;;;;;40.17;15.93;;;-3.30;99.90;;;-5.28;100.00;99849.84;5026658;28;20129;-76
2022/12/09 07:14:13;;;;;;;42.90;16.98;;;-3.20;99.90;;;-5.15;100.00;99844.28;5024080;28;20022;-78
2022/12/09 07:16:40;;;;;;;42.35;17.90;;;-3.10;99.90;;;-5.06;100.00;99841.63;5027956;28;20103;-78
2022/12/09 07:19:06;;;;;;;43.42;18.17;;;-3.00;99.90;;;-4.99;100.00;99836.63;5028328;28;20112;-78
2022/12/09 07:21:32;;;;;;;46.75;17.10;;;-2.90;99.90;;;-4.89;100.00;99846.47;5028533;28;20033;-79
2022/12/09 07:24:01;;;;;;;47.25;19.40;;;-2.90;99.90;;;-4.88;100.00;99845.50;5029353;28;20622;-78
2022/12/09 07:26:32;;;;;;;45.03;19.08;;;-2.90;99.90;;;-4.79;100.00;99844.66;5028110;28;20096;-77
2022/12/09 07:29:02;;;;;;;37.78;17.40;;;-2.80;99.90;;;-4.78;100.00;99841.84;5022752;28;20037;-78
2022/12/09 07:31:28;;;;;;;45.40;17.85;;;-2.80;99.90;;;-4.72;100.00;99840.47;5027685;28;20036;-77
2022/12/09 07:33:56;;;;;;;44.05;18.38;;;-2.70;99.90;;;-4.68;100.00;99836.53;5029071;28;20049;-75
2022/12/09 07:36:24;;;;;;;41.13;17.92;;;-2.70;99.90;;;-4.63;100.00;99837.00;5027828;28;20044;-78
2022/12/09 07:39:02;;;;;;;41.17;18.90;;;-2.60;99.90;;;-4.52;100.00;99846.66;5029237;28;20029;-77
2022/12/09 07:41:28;;;;;;;44.13;18.25;;;-2.50;99.90;;;-4.43;100.00;99850.31;5022820;28;20025;-77
2022/12/09 07:43:54;;;;;;;37.33;17.27;;;-2.40;99.90;;;-4.42;100.00;99848.50;5020172;28;20385;-76
2022/12/09 07:46:22;;;;;;;47.33;19.70;;;-2.40;99.90;;;-4.35;100.00;99853.13;5028800;28;20029;-79
2022/12/09 07:48:48;;;;;;;;;;;-2.30;99.90;;;-4.26;100.00;99847.94;5024680;28;20395;-80
2022/12/09 07:51:15;;;;;;;45.97;17.10;;;-2.30;99.90;;;-4.24;100.00;99846.84;5026661;28;19923;-80
2022/12/09 07:53:41;;;;;;;45.42;18.10;;;-2.20;99.90;;;-4.19;100.00;99844.59;5025347;28;20040;-80
2022/12/09 07:56:13;;;;;;;44.40;18.42;;;-2.20;99.90;;;-4.14;100.00;99851.31;5026623;28;20472;-79
2022/12/09 07:58:40;;;;;;;43.58;19.30;;;-2.10;99.90;;;-4.14;100.00;99844.13;5005391;28;20025;-79
2022/12/09 08:01:18;;;;;;;48.72;18.95;;;-2.10;99.90;;;-4.08;100.00;99851.59;5022774;28;20040;-79
2022/12/09 08:03:48;;;;;;;40.85;18.20;;;-2.10;99.90;;;-3.99;100.00;99852.53;5025172;28;20627;-81
2022/12/09 08:06:18;;;;;;;48.90;19.98;;;-2.00;99.90;;;-3.88;100.00;99853.38;5043773;28;20017;-81
2022/12/09 08:08:45;;;;;;;47.50;18.92;;;-1.90;99.90;;;-3.81;100.00;99857.16;5022410;28;20092;-81
2022/12/09 08:11:21;;;;;;;53.22;20.08;;;-1.80;99.90;;;-3.73;100.00;99854.63;5022425;28;20499;-81
2022/12/09 08:13:47;;;;;;;43.22;18.52;;;-1.70;99.90;;;-3.62;100.00;99850.94;5025558;28;20117;-80
2022/12/09 08:16:17;;;;;;;45.13;19.33;;;-1.60;99.90;;;-3.54;100.00;99852.91;5026836;28;20041;-80
2022/12/09 08:18:44;;;;;;;50.45;20.75;;;-1.60;99.90;;;-3.44;100.00;99850.19;5021450;28;20161;-81
2022/12/09 08:21:20;;;;;;;49.35;19.10;;;-1.50;99.90;;;-3.33;100.00;99858.00;5026973;28;20037;-80
2022/12/09 08:23:47;;;;;;;50.17;20.80;;;-1.40;99.90;;;-3.28;100.00;99850.44;5021583;28;20034;-80
2022/12/09 08:26:16;;;;;;;46.05;19.42;;;-1.30;99.90;;;-3.20;100.00;99861.22;5026639;28;20132;-82
2022/12/09 08:28:42;;;;;;;46.35;19.70;;;-1.30;99.90;;;-3.12;100.00;99848.94;5020744;28;20048;-81
2022/12/09 08:31:13;;;;;;;46.80;20.05;;;-1.10;99.90;;;-2.98;100.00;99856.47;5019729;28;20033;-81
2022/12/09 08:33:39;;;;;;;52.72;21.13;;;-1.00;99.90;;;-2.87;100.00;99858.13;5027820;28;20048;-81
2022/12/09 08:36:12;;;;;;;51.63;20.27;;;-0.90;99.90;;;-2.80;100.00;99864.53;5027786;28;20041;-80
2022/12/09 08:38:38;;;;;;;46.15;20.35;;;-0.90;99.90;;;-2.73;100.00;99853.25;5027200;28;20512;-81
2022/12/09 08:41:39;;;;;;;48.78;19.92;;;-0.80;99.90;;;-2.60;100.00;99853.75;5026530;28;20045;-81
2022/12/09 08:44:14;;;;;;;56.03;21.75;;;-0.70;99.90;;;-2.58;100.00;99857.09;5010652;28;20227;-81
2022/12/09 08:46:44;;;;;;;47.83;20.20;;;-0.70;99.90;;;-2.54;100.00;99852.28;5028724;28;20029;-80
2022/12/09 08:49:12;;;;;;;49.42;21.05;;;-0.60;99.90;;;-2.46;100.00;99853.22;5027540;28;20029;-79
2022/12/09 08:51:38;;;;;;;;;;;-0.50;99.90;;;-2.42;100.00;99855.56;5024296;28;20065;-82
2022/12/09 08:54:05;;;;;;;52.58;20.60;;;-0.50;99.90;;;-2.43;100.00;99854.75;5025312;28;19959;-81
2022/12/09 08:56:31;;;;;;;53.67;21.40;;;-0.50;99.90;;;-2.42;100.00;99848.41;5026265;28;20037;-80
2022/12/09 08:58:56;;;;;;;58.65;20.80;;;-0.40;99.90;;;-2.38;100.00;99848.97;5026718;28;20041;-82
2022/12/09 09:01:31;;;;;;;56.80;21.08;;;-0.40;99.90;;;-2.28;100.00;99849.72;5029412;28;20044;-81
2022/12/09 09:04:04;;;;;;;53.80;22.45;;;-0.30;99.90;;;-2.30;100.00;99843.69;5037692;28;20064;-81
2022/12/09 09:06:30;;;;;;;55.33;20.38;;;-0.30;99.90;;;-2.28;100.00;99848.84;5023630;28;20029;-81
2022/12/09 09:08:56;;;;;;;58.30;21.25;;;-0.30;99.90;;;-2.29;100.00;99850.72;5018984;28;20033;-80
2022/12/09 09:11:22;;;;;;;62.28;23.27;;;-0.30;99.90;;;-2.31;100.00;99852.69;5026402;28;20527;-80
2022/12/09 09:13:52;;;;;;;63.72;23.73;;;-0.30;99.90;;;-2.25;100.00;99856.59;5026443;28;20025;-80
2022/12/09 09:16:23;;;;;;;73.25;25.38;;;-0.20;99.90;;;-2.21;100.00;99857.97;5026017;28;20423;-81
2022/12/09 09:18:49;;;;;;;75.25;26.08;;;-0.20;99.90;;;-2.16;100.00;99861.00;5023058;28;20036;-82
2022/12/09 09:21:19;;;;;;;76.35;26.58;;;-0.20;99.90;;;-2.06;100.00;99866.28;5027474;28;20025;-82
2022/12/09 09:23:45;;;;;;;78.47;26.92;;;-0.10;99.90;;;-1.98;100.00;99869.03;5027441;28;20496;-81
2022/12/09 09:26:14;;;;;;;79.65;28.05;;;0.00;99.90;;;-1.94;100.00;99865.03;5027035;28;20037;-82
2022/12/09 09:28:40;;;;;;;71.30;25.73;;;0.00;99.90;;;-1.91;100.00;99855.88;5027729;28;20030;-82
2022/12/09 09:31:10;;;;;;;80.22;25.27;;;0.10;99.90;;;-1.78;100.00;99866.19;5027956;28;20037;-82
2022/12/09 09:33:36;;;;;;;77.72;25.80;;;0.10;99.90;;;-1.71;100.00;99864.56;5031722;28;20072;-82
2022/12/09 09:36:05;;;;;;;80.57;25.73;;;0.20;99.90;;;-1.69;100.00;99867.09;5032445;28;20083;-82
2022/12/09 09:38:31;;;;;;;75.00;25.70;;;0.20;99.90;;;-1.62;100.00;99870.81;5031851;28;20116;-82
2022/12/09 09:40:59;;;;;;;71.95;24.52;;;0.20;99.90;;;-1.55;100.00;99868.34;5031712;28;20116;-82
2022/12/09 09:43:35;;;;;;;76.07;26.13;;;0.30;99.90;;;-1.49;100.00;99863.19;5031010;28;20109;-82
2022/12/09 09:46:03;;;;;;;70.03;25.50;;;0.30;99.90;;;-1.35;100.00;99874.31;5027513;28;20577;-83
2022/12/09 09:48:34;;;;;;;74.32;26.33;;;0.40;99.90;;;-1.19;100.00;99873.56;5030661;28;20036;-82
2022/12/09 09:51:09;;;;;;;70.22;24.55;;;0.50;99.90;;;-1.20;100.00;99864.69;5031036;28;20036;-82
2022/12/09 09:53:35;;;;;;;72.85;25.88;;;0.60;99.90;;;-1.19;100.00;99874.44;5029972;28;20025;-82
2022/12/09 09:56:30;;;;;;;72.97;24.35;;;0.60;99.90;;;-1.19;100.00;99876.25;5030142;28;20043;-81
2022/12/09 09:59:21;;;;;;;75.32;25.50;;;0.70;99.90;;;-1.25;100.00;99858.97;5040250;28;20034;-81
2022/12/09 10:02:38;;;;;;;71.90;25.25;;;0.70;99.90;;;-1.16;100.00;99871.44;5034133;28;20060;-81
2022/12/09 10:05:23;;;;;;;84.15;26.27;;;0.80;99.90;;;-1.08;100.00;99870.59;5004433;28;20492;-81
2022/12/09 10:08:02;;;;;;;73.63;25.95;;;0.80;99.90;;;-0.98;100.00;99872.34;5025219;28;20056;-79
2022/12/09 10:11:03;;;;;;;66.13;23.90;;;0.80;99.90;;;-0.91;100.00;99870.69;5044554;28;20029;-80
2022/12/09 10:14:01;;;;;;;67.93;24.23;;;0.90;99.90;;;-0.85;100.00;99874.56;5027797;28;20034;-81
2022/12/09 10:16:45;;;;;;;75.15;25.00;;;1.00;99.90;;;-0.82;100.00;99872.41;5029443;28;20045;-81